Golden Meadow, Louisiana
Current Conditions -  °F | °C
As of 7:15 PM on Saturday 22 Nov 2014 (Local Time) from KXPY Reporting Station
Broken Clouds Broken Clouds  
Wind Chill: 19°   Ceiling: 1000
Heat Index: 19°   Visibility: 7mi
Dew Point: 17°   Wind: 10mph
Humidity: 88%   Direction: 50°NE
Pressure: 30.01"   Gusts: NA
Location:  29.38°N, 90.26°W
Report Text: KXPY 230115Z AUTO 05009KT 7SM BKN010 BKN016 BKN020 19/17 A3001 RMK A01
Loading
Personal Weather Stations






























Interactive Weather Map New forecast layout! Learn more

10-Day Weather Forecast

Advertisements
Track Severe Weather on mobile